Terminal Aerodrome Forecast
Issued by NWS Northern Indiana

Home | Current Version | Previous Version | Text Only | Print | Product List | Glossary On
Versions: 1 2 3 4 5 6 7 8 9 10 11 12 13 14 15 16 17 18 19 20 21 22 23
000
FTUS43 KIWX 230500
TAFFWA
TAF
KFWA 230536Z 2306/2406 VRB03KT 4SM SHRA BR VCTS SCT025CB BKN040
      TEMPO 2306/2307 2SM +SHRA BR BKN018 OVC040
     FM230800 VRB02KT 3SM BR BKN007
      TEMPO 2309/2313 1SM BR BKN004
     FM231300 10005KT 3SM BR BKN012
     FM231500 07005KT 6SM BR BKN025=

USA.gov is the U.S. government's official web portal to all federal, state and local government web resources and services.